createdAt,value
2023-03-26T00:00:54.354Z,57.52
2023-03-26T00:03:57.999Z,57.98
2023-03-26T00:07:00.674Z,59.14
2023-03-26T00:10:03.779Z,58.39
2023-03-26T00:13:07.378Z,58.94
2023-03-26T00:16:12.271Z,58.99
2023-03-26T00:19:14.362Z,60.35
2023-03-26T00:22:17.183Z,58.51
2023-03-26T00:25:20.562Z,58.42
2023-03-26T00:28:23.329Z,58.10
2023-03-26T00:31:27.319Z,59.23
2023-03-26T00:34:32.073Z,59.34
2023-03-26T00:37:34.088Z,59.28
2023-03-26T00:40:36.896Z,60.14
2023-03-26T00:43:39.354Z,60.40
2023-03-26T00:46:42.886Z,59.64
2023-03-26T00:49:46.971Z,59.33
2023-03-26T00:52:48.944Z,58.83
2023-03-26T00:55:50.912Z,58.71
2023-03-26T00:58:52.996Z,58.77
2023-03-26T01:01:58.511Z,59.72
2023-03-26T01:05:04.061Z,59.33
2023-03-26T01:08:18.404Z,58.94
2023-03-26T01:11:23.952Z,57.88
2023-03-26T01:14:29.084Z,58.50
2023-03-26T01:17:38.086Z,57.65
2023-03-26T01:20:46.767Z,58.29
2023-03-26T01:23:57.786Z,58.65
2023-03-26T01:27:14.424Z,58.13
2023-03-26T01:30:24.533Z,58.37
2023-03-26T01:33:36.722Z,57.54
2023-03-26T01:36:46.918Z,57.36
2023-03-26T01:39:57.116Z,57.22
2023-03-26T01:43:08.882Z,56.84
2023-03-26T01:46:14.311Z,54.45
2023-03-26T01:49:18.618Z,54.21
2023-03-26T01:52:25.326Z,53.79
2023-03-26T01:55:38.334Z,54.05
2023-03-26T01:58:55.386Z,53.54
2023-03-26T02:02:04.941Z,52.66
2023-03-26T02:05:15.948Z,52.97
2023-03-26T02:08:23.653Z,53.38
2023-03-26T02:11:35.550Z,52.96
2023-03-26T02:14:38.066Z,52.65
2023-03-26T02:17:40.611Z,52.75
2023-03-26T02:20:42.718Z,52.03
2023-03-26T02:23:48.788Z,52.09
2023-03-26T02:26:52.380Z,52.58
2023-03-26T02:29:54.368Z,52.87
2023-03-26T02:32:59.543Z,53.06
2023-03-26T02:36:04.412Z,53.78
2023-03-26T02:39:06.422Z,54.39
2023-03-26T02:42:09.900Z,54.80
2023-03-26T02:45:11.847Z,54.13
2023-03-26T02:48:15.193Z,53.67
2023-03-26T02:51:18.372Z,54.60
2023-03-26T02:54:20.577Z,54.30
2023-03-26T02:57:24.228Z,55.08
2023-03-26T03:00:26.424Z,54.58
2023-03-26T03:03:30.237Z,54.65
2023-03-26T03:06:32.577Z,55.00
2023-03-26T03:09:34.881Z,52.98
2023-03-26T03:12:38.244Z,52.93
2023-03-26T03:15:40.181Z,53.81
2023-03-26T03:18:42.158Z,54.58
2023-03-26T03:21:44.174Z,55.65
2023-03-26T03:24:46.161Z,56.25
2023-03-26T03:27:50.419Z,57.76
2023-03-26T03:30:57.733Z,58.86
2023-03-26T03:33:59.694Z,59.53
2023-03-26T03:37:01.651Z,59.64
2023-03-26T03:40:07.822Z,60.13
2023-03-26T03:43:11.270Z,61.02
2023-03-26T03:46:13.523Z,60.96
2023-03-26T03:49:15.730Z,60.53
2023-03-26T03:52:18.312Z,60.41
2023-03-26T03:55:20.243Z,61.65
2023-03-26T03:58:25.060Z,62.52
2023-03-26T04:01:27.067Z,62.67
2023-03-26T04:04:29.078Z,61.65
2023-03-26T04:07:32.374Z,61.81
2023-03-26T04:10:34.356Z,61.34
2023-03-26T04:13:37.772Z,60.26
2023-03-26T04:16:39.728Z,61.43
2023-03-26T04:19:44.167Z,61.06
2023-03-26T04:22:46.846Z,60.18
2023-03-26T04:25:53.877Z,59.33
2023-03-26T04:29:01.092Z,59.81
2023-03-26T04:32:06.844Z,59.93
2023-03-26T04:35:13.163Z,59.58
2023-03-26T04:38:18.454Z,60.29
2023-03-26T04:41:22.375Z,59.66
2023-03-26T04:44:25.742Z,59.00
2023-03-26T04:47:29.179Z,59.78
2023-03-26T04:50:31.197Z,59.25
2023-03-26T04:53:34.331Z,59.84
2023-03-26T04:56:47.565Z,60.13
2023-03-26T04:59:51.547Z,59.84
2023-03-26T05:02:58.306Z,60.38
2023-03-26T05:06:01.588Z,60.28
2023-03-26T05:09:04.048Z,59.48
2023-03-26T05:12:06.325Z,60.80
2023-03-26T05:15:12.156Z,58.88
2023-03-26T05:18:14.414Z,58.05
2023-03-26T05:21:16.399Z,59.91
2023-03-26T05:24:19.787Z,58.31
2023-03-26T05:27:21.683Z,56.60
2023-03-26T05:30:25.587Z,56.42
2023-03-26T05:33:27.590Z,57.02
2023-03-26T05:36:30.639Z,57.08
2023-03-26T05:39:32.677Z,55.88
2023-03-26T05:42:34.618Z,55.66
2023-03-26T05:45:37.995Z,53.97
2023-03-26T05:48:40.431Z,53.87
2023-03-26T05:51:42.510Z,51.94
2023-03-26T05:54:44.585Z,52.90
2023-03-26T05:57:46.555Z,51.98
2023-03-26T06:00:58.535Z,51.89
2023-03-26T06:04:03.004Z,50.49
2023-03-26T06:07:05.091Z,51.60
2023-03-26T06:10:08.173Z,51.37
2023-03-26T06:13:10.477Z,52.05
2023-03-26T06:16:26.302Z,50.69
2023-03-26T06:19:30.254Z,49.75
2023-03-26T06:22:32.218Z,49.84
2023-03-26T06:25:34.190Z,49.58
2023-03-26T06:28:36.717Z,49.62
2023-03-26T06:31:40.684Z,49.39
2023-03-26T06:34:42.711Z,49.87
2023-03-26T06:37:44.821Z,49.41
2023-03-26T06:40:46.796Z,49.39
2023-03-26T06:43:48.742Z,47.66
2023-03-26T06:46:52.160Z,47.45
2023-03-26T06:49:54.135Z,48.75
2023-03-26T06:52:56.640Z,48.13
2023-03-26T06:55:58.565Z,46.95
2023-03-26T06:59:00.749Z,47.50
2023-03-26T07:02:04.385Z,47.12
2023-03-26T07:05:07.034Z,46.83
2023-03-26T07:08:09.062Z,46.21
2023-03-26T07:11:11.275Z,44.96
2023-03-26T07:14:17.734Z,45.42
2023-03-26T07:17:21.427Z,44.92
2023-03-26T07:20:24.333Z,44.22
2023-03-26T07:23:27.037Z,43.98
2023-03-26T07:26:38.690Z,43.16
2023-03-26T07:30:08.617Z,42.45
2023-03-26T07:33:18.906Z,42.22
2023-03-26T07:36:28.057Z,41.26
2023-03-26T07:39:43.104Z,39.19
2023-03-26T07:42:56.430Z,38.53
2023-03-26T07:45:59.141Z,39.50
2023-03-26T07:49:04.699Z,39.42
2023-03-26T07:52:06.767Z,39.93
2023-03-26T07:55:14.041Z,39.96
2023-03-26T07:58:31.453Z,38.84
2023-03-26T08:01:53.795Z,40.96
2023-03-26T08:05:10.674Z,43.42
2023-03-26T08:08:20.721Z,43.68
2023-03-26T08:11:34.354Z,44.35
2023-03-26T08:14:50.023Z,44.44
2023-03-26T08:17:58.016Z,44.58
2023-03-26T08:21:08.190Z,45.07
2023-03-26T08:24:23.026Z,46.22
2023-03-26T08:27:34.618Z,46.24
2023-03-26T08:30:37.058Z,45.91
2023-03-26T08:33:40.928Z,44.75
2023-03-26T08:36:44.655Z,43.43
2023-03-26T08:39:46.702Z,42.29
2023-03-26T08:43:16.886Z,41.71
2023-03-26T08:47:01.859Z,42.54
2023-03-26T08:50:35.291Z,40.98
2023-03-26T08:54:14.753Z,40.50
2023-03-26T08:57:43.155Z,40.82
2023-03-26T09:01:13.766Z,40.85
2023-03-26T09:04:54.488Z,43.04
2023-03-26T09:08:30.006Z,41.93
2023-03-26T09:12:02.054Z,43.81
2023-03-26T09:15:48.692Z,44.57
2023-03-26T09:19:26.057Z,43.14
2023-03-26T09:22:57.890Z,42.81
2023-03-26T09:26:25.481Z,43.21
2023-03-26T09:30:12.503Z,43.60
2023-03-26T09:33:54.322Z,43.69
2023-03-26T09:37:06.790Z,43.25
2023-03-26T09:40:16.591Z,43.27
2023-03-26T09:43:49.805Z,43.53
2023-03-26T09:47:22.599Z,42.21
2023-03-26T09:50:40.314Z,42.09
2023-03-26T09:53:57.010Z,41.81
2023-03-26T09:57:10.569Z,41.53
2023-03-26T10:00:28.557Z,40.50
2023-03-26T10:03:41.412Z,41.32
2023-03-26T10:06:54.590Z,41.65
2023-03-26T10:10:02.406Z,41.55
2023-03-26T10:13:16.393Z,42.90
2023-03-26T10:16:28.569Z,42.71
2023-03-26T10:19:43.692Z,42.06
2023-03-26T10:22:56.905Z,41.25
2023-03-26T10:26:09.801Z,41.71
2023-03-26T10:29:44.162Z,40.30
2023-03-26T10:32:54.524Z,40.92
2023-03-26T10:36:15.501Z,41.68
2023-03-26T10:39:48.743Z,39.97
2023-03-26T10:43:21.338Z,39.85
2023-03-26T10:46:40.295Z,40.86
2023-03-26T10:50:03.177Z,42.12
2023-03-26T10:53:12.709Z,41.63
2023-03-26T10:56:22.031Z,41.59
2023-03-26T10:59:27.760Z,42.40
2023-03-26T11:02:34.095Z,41.97
2023-03-26T11:05:49.399Z,40.89
2023-03-26T11:09:02.449Z,40.19
2023-03-26T11:12:25.593Z,39.44
2023-03-26T11:15:38.513Z,41.21
2023-03-26T11:18:48.015Z,41.76
2023-03-26T11:21:57.654Z,41.75
2023-03-26T11:25:34.347Z,40.73
2023-03-26T11:29:03.215Z,41.38
2023-03-26T11:32:11.137Z,41.39
2023-03-26T11:35:39.758Z,41.34
2023-03-26T11:38:47.009Z,39.84
2023-03-26T11:41:54.794Z,40.68
2023-03-26T11:45:04.101Z,40.39
2023-03-26T11:48:10.945Z,40.29
2023-03-26T11:51:20.781Z,39.62
2023-03-26T11:54:23.005Z,40.35
2023-03-26T11:57:33.460Z,40.33
2023-03-26T12:00:36.179Z,40.29
2023-03-26T12:03:40.810Z,38.78
2023-03-26T12:06:52.813Z,38.06
2023-03-26T12:09:58.214Z,38.70
2023-03-26T12:13:30.575Z,38.00
2023-03-26T12:16:32.796Z,38.62
2023-03-26T12:19:39.650Z,37.20
2023-03-26T12:22:47.879Z,37.11
2023-03-26T12:26:09.846Z,36.87
2023-03-26T12:29:15.119Z,36.81
2023-03-26T12:32:17.268Z,36.16
2023-03-26T12:35:26.882Z,36.71
2023-03-26T12:38:35.971Z,35.63
2023-03-26T12:43:40.206Z,36.61
2023-03-26T12:45:16.906Z,36.32
2023-03-26T12:48:19.740Z,34.87
2023-03-26T12:51:40.608Z,35.31
2023-03-26T12:54:51.194Z,34.33
2023-03-26T12:58:13.321Z,34.00
2023-03-26T13:01:26.822Z,34.71
2023-03-26T13:04:55.011Z,34.11
2023-03-26T13:08:26.360Z,32.20
2023-03-26T13:11:38.306Z,31.52
2023-03-26T13:15:03.560Z,30.56
2023-03-26T13:18:22.471Z,29.41
2023-03-26T13:21:37.190Z,28.21
2023-03-26T13:24:54.474Z,28.51
2023-03-26T13:28:10.975Z,29.21
2023-03-26T13:31:19.397Z,30.42
2023-03-26T13:34:33.884Z,29.91
2023-03-26T13:37:42.746Z,30.15
2023-03-26T13:40:57.844Z,30.16
2023-03-26T13:44:08.076Z,29.97
2023-03-26T13:47:16.817Z,29.85
2023-03-26T13:50:25.515Z,29.67
2023-03-26T13:53:35.426Z,30.82
2023-03-26T13:56:43.356Z,30.07
2023-03-26T13:59:51.302Z,29.97
2023-03-26T14:02:58.508Z,29.57
2023-03-26T14:06:08.817Z,29.16
2023-03-26T14:09:17.899Z,30.91
2023-03-26T14:12:31.857Z,31.36
2023-03-26T14:15:41.549Z,30.95
2023-03-26T14:18:49.586Z,31.83
2023-03-26T14:22:11.231Z,32.32
2023-03-26T14:25:32.830Z,32.03
2023-03-26T14:29:10.307Z,32.72
2023-03-26T14:32:24.901Z,31.65
2023-03-26T14:35:37.094Z,31.45
2023-03-26T14:39:05.454Z,31.25
2023-03-26T14:42:18.194Z,31.08
2023-03-26T14:46:00.079Z,29.55
2023-03-26T14:49:46.592Z,30.21
2023-03-26T14:52:51.602Z,29.72
2023-03-26T14:56:34.902Z,30.06
2023-03-26T15:00:07.590Z,30.18
2023-03-26T15:03:54.824Z,31.04
2023-03-26T15:07:39.054Z,29.04
2023-03-26T15:11:17.973Z,30.25
2023-03-26T15:14:56.266Z,29.76
2023-03-26T15:18:36.402Z,30.70
2023-03-26T15:22:17.276Z,30.17
2023-03-26T15:25:42.040Z,30.32
2023-03-26T15:29:05.904Z,30.11
2023-03-26T15:32:35.161Z,30.45
2023-03-26T15:36:01.387Z,30.50
2023-03-26T15:40:31.407Z,32.17
2023-03-26T15:44:24.390Z,32.04
2023-03-26T15:48:12.071Z,31.71
2023-03-26T15:51:31.635Z,30.91
2023-03-26T15:55:00.886Z,31.41
2023-03-26T15:58:13.699Z,31.12
2023-03-26T16:01:38.876Z,31.37
2023-03-26T16:04:50.360Z,31.03
2023-03-26T16:08:07.332Z,31.96
2023-03-26T16:11:12.861Z,32.11
2023-03-26T16:14:21.409Z,32.59
2023-03-26T16:17:25.384Z,32.98
2023-03-26T16:20:33.721Z,33.25
2023-03-26T16:23:54.207Z,33.44
2023-03-26T16:27:23.944Z,33.49
2023-03-26T16:30:30.399Z,34.09
2023-03-26T16:33:37.951Z,34.24
2023-03-26T16:36:44.351Z,34.68
2023-03-26T16:39:47.710Z,34.74
2023-03-26T16:42:55.567Z,33.95
2023-03-26T16:46:08.436Z,34.59
2023-03-26T16:49:22.681Z,35.17
2023-03-26T16:52:46.764Z,35.90
2023-03-26T16:55:57.203Z,36.25
2023-03-26T16:59:08.036Z,35.66
2023-03-26T17:02:21.871Z,36.32
2023-03-26T17:05:35.489Z,36.88
2023-03-26T17:08:49.800Z,36.65
2023-03-26T17:12:03.862Z,37.36
2023-03-26T17:15:27.019Z,37.44
2023-03-26T17:18:44.183Z,38.04
2023-03-26T17:21:56.734Z,37.31
2023-03-26T17:25:11.600Z,37.71
2023-03-26T17:28:28.270Z,38.00
2023-03-26T17:31:41.848Z,38.10
2023-03-26T17:34:59.878Z,38.48
2023-03-26T17:38:03.491Z,38.70
2023-03-26T17:41:15.878Z,38.94
2023-03-26T17:44:46.706Z,39.54
2023-03-26T17:47:54.514Z,39.58
2023-03-26T17:51:03.289Z,39.75
2023-03-26T17:54:15.315Z,39.95
2023-03-26T17:57:25.927Z,39.65
2023-03-26T18:00:32.955Z,39.09
2023-03-26T18:03:40.838Z,39.28
2023-03-26T18:07:05.307Z,39.19
2023-03-26T18:10:25.204Z,38.83
2023-03-26T18:14:02.947Z,39.17
2023-03-26T18:17:18.538Z,38.43
2023-03-26T18:20:27.177Z,38.50
2023-03-26T18:23:37.293Z,38.71
2023-03-26T18:26:44.073Z,38.46
2023-03-26T18:30:03.048Z,38.44
2023-03-26T18:33:14.263Z,38.45
2023-03-26T18:36:20.267Z,38.04
2023-03-26T18:39:24.853Z,38.09
2023-03-26T18:42:31.345Z,38.95
2023-03-26T18:45:43.694Z,38.55
2023-03-26T18:48:48.482Z,39.11
2023-03-26T18:51:57.500Z,39.05
2023-03-26T18:55:03.291Z,39.84
2023-03-26T18:58:22.468Z,40.14
2023-03-26T19:01:34.252Z,41.18
2023-03-26T19:04:38.716Z,41.37
2023-03-26T19:07:46.596Z,40.78
2023-03-26T19:10:50.943Z,41.70
2023-03-26T19:14:04.140Z,41.92
2023-03-26T19:17:09.544Z,40.82
2023-03-26T19:20:18.950Z,40.02
2023-03-26T19:23:27.229Z,39.73
2023-03-26T19:26:30.942Z,41.23
2023-03-26T19:29:36.348Z,40.16
2023-03-26T19:32:41.217Z,40.09
2023-03-26T19:35:47.339Z,40.54
2023-03-26T19:38:59.825Z,40.79
2023-03-26T19:42:05.252Z,40.33
2023-03-26T19:45:19.167Z,40.87
2023-03-26T19:48:45.661Z,41.89
2023-03-26T19:52:12.165Z,42.73
2023-03-26T19:55:23.155Z,42.00
2023-03-26T19:58:28.303Z,42.15
2023-03-26T20:01:32.343Z,42.69
2023-03-26T20:04:37.259Z,42.11
2023-03-26T20:07:40.383Z,40.53
2023-03-26T20:10:43.954Z,40.40
2023-03-26T20:13:47.311Z,40.40
2023-03-26T20:16:50.301Z,40.16
2023-03-26T20:19:54.479Z,40.97
2023-03-26T20:22:57.465Z,40.91
2023-03-26T20:26:06.774Z,40.66
2023-03-26T20:29:10.590Z,41.02
2023-03-26T20:32:19.983Z,40.88
2023-03-26T20:35:36.231Z,41.21
2023-03-26T20:38:40.384Z,40.57
2023-03-26T20:41:46.463Z,41.03
2023-03-26T20:44:51.636Z,41.88
2023-03-26T20:48:17.144Z,42.39
2023-03-26T20:51:21.486Z,41.80
2023-03-26T20:54:25.818Z,42.53
2023-03-26T20:57:28.080Z,42.14
2023-03-26T21:00:32.808Z,42.21
2023-03-26T21:03:34.845Z,41.53
2023-03-26T21:06:38.328Z,42.29
2023-03-26T21:09:41.200Z,41.86
2023-03-26T21:12:47.883Z,42.41
2023-03-26T21:15:50.443Z,44.50
2023-03-26T21:18:52.960Z,45.32
2023-03-26T21:22:03.553Z,46.18
2023-03-26T21:25:17.536Z,49.72
2023-03-26T21:28:39.815Z,56.34
2023-03-26T21:31:44.589Z,63.51
2023-03-26T21:34:57.519Z,63.70
2023-03-26T21:38:04.596Z,65.17
2023-03-26T21:41:07.790Z,64.58
2023-03-26T21:44:09.944Z,63.70
2023-03-26T21:47:12.673Z,63.15
2023-03-26T21:50:17.620Z,65.31
2023-03-26T21:53:22.645Z,63.33
2023-03-26T21:56:40.786Z,64.35
2023-03-26T21:59:49.870Z,64.51
2023-03-26T22:03:04.005Z,63.71
2023-03-26T22:06:13.601Z,64.29
2023-03-26T22:09:26.295Z,65.73
2023-03-26T22:12:28.678Z,65.92
2023-03-26T22:15:31.295Z,65.96
2023-03-26T22:18:33.665Z,65.89
2023-03-26T22:21:35.967Z,65.77
2023-03-26T22:24:39.197Z,68.19
2023-03-26T22:27:44.163Z,68.74
2023-03-26T22:30:46.819Z,69.77
2023-03-26T22:33:49.198Z,70.49
2023-03-26T22:36:52.512Z,69.51
2023-03-26T22:39:56.186Z,70.76
2023-03-26T22:42:58.067Z,72.51
2023-03-26T22:45:59.953Z,71.07
2023-03-26T22:49:01.922Z,72.96
2023-03-26T22:52:04.113Z,71.64
2023-03-26T22:55:09.000Z,69.37
2023-03-26T22:58:10.833Z,68.98
2023-03-26T23:01:16.870Z,70.78
2023-03-26T23:04:31.540Z,66.25
2023-03-26T23:07:34.172Z,69.57
2023-03-26T23:10:37.446Z,68.89
2023-03-26T23:13:39.831Z,67.18
2023-03-26T23:16:42.403Z,65.60
2023-03-26T23:19:44.599Z,66.75
2023-03-26T23:22:46.518Z,66.67
2023-03-26T23:25:50.129Z,68.51
2023-03-26T23:28:52.010Z,68.48
2023-03-26T23:31:54.687Z,65.95
2023-03-26T23:34:56.666Z,67.90
2023-03-26T23:38:02.203Z,67.27
2023-03-26T23:41:06.871Z,70.14
2023-03-26T23:44:13.652Z,70.62
2023-03-26T23:47:16.777Z,72.66
2023-03-26T23:50:18.764Z,73.68
2023-03-26T23:53:22.606Z,74.57
2023-03-26T23:56:27.828Z,71.95
2023-03-26T23:59:29.749Z,71.49
